< Typhoon 199324 1993 Season Typhoon 199326 >
Typhoon 199325 (KYLE)
General InformationTrack Information on Google MapsDetailed Wind InformationList of All Images || Disaster Info.ResourceGoogle EarthGE AnimationAtom FeedGeoJSON
Detalied Best Track (Time Zone = UTC)
Year Month Day Hour Lat. Long. Pressure (hPa) Wind (kt) Class Image Chart
1993 11 17 12 8.7 137.2 1006 0 2 Image Chart
1993 11 17 18 8.9 136.6 1006 0 2 Image Chart
1993 11 18 00 9.2 135.8 1006 0 2 Image Chart
1993 11 18 06 9.3 134.7 1004 0 2 Image Chart
1993 11 18 12 9.5 133.3 1004 0 2 Image Chart
1993 11 18 18 9.6 131.8 1004 0 2 Image Chart
1993 11 19 00 9.8 130.5 1004 0 2 Image Chart
1993 11 19 06 10.1 129.6 1002 0 2 Image Chart
1993 11 19 12 10.4 128.7 1002 0 2 Image Chart
1993 11 19 18 10.6 127.6 1000 35 3 Image Chart
1993 11 20 00 10.7 126.3 1000 35 3 Image Chart
1993 11 20 06 10.9 125.3 998 35 3 Image Chart
1993 11 20 12 11.1 124.3 998 35 3 Image Chart
1993 11 20 18 11.5 123.0 998 35 3 Image Chart
1993 11 21 00 11.7 121.6 998 35 3 Image Chart
1993 11 21 06 11.8 120.5 996 40 3 Image Chart
1993 11 21 12 11.9 119.4 996 40 3 Image Chart
1993 11 21 18 11.9 118.4 992 45 3 Image Chart
1993 11 22 00 12.1 117.2 990 45 3 Image Chart
1993 11 22 06 12.4 115.8 985 50 4 Image Chart
1993 11 22 12 12.6 114.5 975 60 4 Image Chart
1993 11 22 18 12.8 113.0 970 65 5 Image Chart
1993 11 23 00 12.9 111.7 965 70 5 Image Chart
1993 11 23 06 13.0 110.5 960 70 5 Image Chart
1993 11 23 12 13.1 109.4 970 65 5 Image Chart
1993 11 23 18 13.2 108.4 975 60 4 Image Chart
1993 11 24 00 13.4 106.5 990 40 3 Image Chart
1993 11 24 03 13.4 106.0 996 0 2 Image Chart
1993 11 24 06 13.5 105.5 1004 0 2 Image Chart
Japan Meteorological Agency Best Track Data | Correction Date : 1994-01-10
< Typhoon 199324 1993 Season Typhoon 199326 >

Help